Time;durP1;ratioP1;P1;durP2;ratioP2;P2;SDS_P1;SDS_P2;PMS_P1;PMS_P2;Temp;Humidity;BMP_temperature;BMP_pressure;BME280_temperature;BME280_humidity;BME280_pressure;Samples;Min_cycle;Max_cycle;Signal;HPM_P1;HPM_P2
2021/06/11 00:00:15;;;;;;;12.60;10.70;;;20.10;91.80;;;;;;5149589;23;20511;-85
2021/06/11 00:02:17;;;;;;;11.60;9.40;;;20.10;91.80;;;;;;5149684;23;20412;-85
2021/06/11 00:04:21;;;;;;;11.97;10.77;;;20.10;91.80;;;;;;5149306;23;20452;-86
2021/06/11 00:06:24;;;;;;;12.00;9.87;;;20.00;92.10;;;;;;5140502;23;20528;-84
2021/06/11 00:08:28;;;;;;;10.20;9.10;;;20.00;92.00;;;;;;5140903;23;20491;-85
2021/06/11 00:10:31;;;;;;;10.07;9.07;;;20.00;92.00;;;;;;5149038;23;20768;-85
2021/06/11 00:12:33;;;;;;;9.60;8.60;;;19.90;92.30;;;;;;5141398;23;20516;-86
2021/06/11 00:14:36;;;;;;;10.90;9.50;;;19.90;92.30;;;;;;5150064;23;20527;-86
2021/06/11 00:16:38;;;;;;;20.10;17.40;;;19.90;92.50;;;;;;5142884;23;20425;-86
2021/06/11 00:18:41;;;;;;;17.77;15.63;;;19.90;92.70;;;;;;5160169;23;20416;-83
2021/06/11 00:20:45;;;;;;;16.50;14.53;;;19.80;93.00;;;;;;5151723;23;20431;-85
2021/06/11 00:22:48;;;;;;;11.37;10.17;;;19.80;93.40;;;;;;5141237;23;20436;-85
2021/06/11 00:24:50;;;;;;;11.03;10.03;;;19.80;93.10;;;;;;5149250;23;20424;-85
2021/06/11 00:26:53;;;;;;;11.60;10.40;;;19.80;92.90;;;;;;5140961;23;20495;-86
2021/06/11 00:28:55;;;;;;;12.40;11.10;;;19.70;93.20;;;;;;5140633;23;20459;-85
2021/06/11 00:30:57;;;;;;;11.17;10.07;;;19.70;93.20;;;;;;5140831;23;20435;-86
2021/06/11 00:33:00;;;;;;;15.03;10.33;;;19.80;93.30;;;;;;5148760;23;20459;-85
2021/06/11 00:35:08;;;;;;;11.80;10.70;;;19.70;93.30;;;;;;5140964;23;20489;-85
2021/06/11 00:37:11;;;;;;;12.77;10.40;;;19.60;93.50;;;;;;5140734;23;20447;-84
2021/06/11 00:39:14;;;;;;;14.83;13.10;;;19.60;93.70;;;;;;5140182;23;20540;-86
2021/06/11 00:41:16;;;;;;;14.70;13.20;;;19.60;93.70;;;;;;5148641;23;20409;-86
2021/06/11 00:43:19;;;;;;;13.13;11.87;;;19.60;93.90;;;;;;5148804;23;20504;-85
2021/06/11 00:45:21;;;;;;;13.97;12.57;;;19.60;94.20;;;;;;5140736;23;20440;-83
2021/06/11 00:47:24;;;;;;;12.60;11.30;;;19.60;94.40;;;;;;5148121;23;20500;-85
2021/06/11 00:49:26;;;;;;;14.30;12.73;;;19.50;94.60;;;;;;5149016;23;20934;-85
2021/06/11 00:51:29;;;;;;;13.73;11.80;;;19.50;94.90;;;;;;5140777;23;20425;-86
2021/06/11 00:53:32;;;;;;;15.17;13.63;;;19.40;95.20;;;;;;5148907;23;20435;-86
2021/06/11 00:55:35;;;;;;;13.77;12.37;;;19.40;95.20;;;;;;5148795;23;20421;-86
2021/06/11 00:57:38;;;;;;;15.00;13.50;;;19.50;95.20;;;;;;5148483;23;20423;-85
2021/06/11 00:59:44;;;;;;;14.30;12.90;;;19.40;95.30;;;;;;5140430;23;20474;-85
2021/06/11 01:01:46;;;;;;;12.90;11.53;;;19.20;95.80;;;;;;5140552;23;20439;-85
2021/06/11 01:03:48;;;;;;;12.80;10.80;;;19.00;96.40;;;;;;5140392;23;20436;-83
2021/06/11 01:05:52;;;;;;;13.80;12.40;;;18.80;96.30;;;;;;5149041;23;20528;-85
2021/06/11 01:07:55;;;;;;;13.77;12.37;;;18.30;97.80;;;;;;5140413;23;20436;-85
2021/06/11 01:10:00;;;;;;;15.20;13.60;;;17.90;98.30;;;;;;5148553;23;20429;-85
2021/06/11 01:12:03;;;;;;;32.37;24.67;;;17.60;98.30;;;;;;5140350;23;20433;-86
2021/06/11 01:14:06;;;;;;;60.37;40.47;;;17.70;98.30;;;;;;5140519;23;20424;-85
2021/06/11 01:16:09;;;;;;;49.03;33.67;;;17.90;98.30;;;;;;5148585;23;20431;-85
2021/06/11 01:18:12;;;;;;;18.67;15.67;;;18.30;98.30;;;;;;5140208;23;20439;-86
2021/06/11 01:20:16;;;;;;;17.20;13.33;;;18.40;98.30;;;;;;5141040;23;20474;-86
2021/06/11 01:22:31;;;;;;;18.53;13.30;;;18.60;98.30;;;;;;5152068;23;20416;-83
2021/06/11 01:24:41;;;;;;;17.57;13.70;;;18.70;98.30;;;;;;5141163;23;20415;-86
2021/06/11 01:26:47;;;;;;;17.00;13.80;;;18.80;98.30;;;;;;5148852;23;20527;-86
2021/06/11 01:28:52;;;;;;;14.00;12.63;;;18.80;98.20;;;;;;5139867;23;20540;-86
2021/06/11 01:30:55;;;;;;;14.07;12.27;;;18.90;98.00;;;;;;5148717;23;20785;-85
2021/06/11 01:33:00;;;;;;;14.23;12.43;;;18.90;97.90;;;;;;5140660;23;20444;-84
2021/06/11 01:35:05;;;;;;;13.97;12.57;;;18.90;97.80;;;;;;5140833;23;20511;-86
2021/06/11 01:37:15;;;;;;;13.80;11.87;;;18.90;97.90;;;;;;5148937;23;20771;-83
2021/06/11 01:39:20;;;;;;;13.17;10.50;;;19.00;97.90;;;;;;5139855;23;21036;-85
2021/06/11 01:41:25;;;;;;;12.53;11.20;;;19.10;97.50;;;;;;5148676;23;20883;-84
2021/06/11 01:43:29;;;;;;;13.33;12.03;;;19.10;97.40;;;;;;5140477;23;20472;-85
2021/06/11 01:45:32;;;;;;;13.07;10.97;;;19.10;97.50;;;;;;5139750;23;20429;-86
2021/06/11 01:47:36;;;;;;;14.70;11.50;;;19.10;97.50;;;;;;5148049;23;20525;-85
2021/06/11 01:49:41;;;;;;;13.13;10.93;;;19.10;97.30;;;;;;5148358;23;20443;-86
2021/06/11 01:51:45;;;;;;;13.17;11.27;;;19.10;97.50;;;;;;5140145;23;20447;-86
2021/06/11 01:53:49;;;;;;;11.70;10.50;;;19.10;97.50;;;;;;5140830;23;20435;-86
2021/06/11 01:55:52;;;;;;;14.20;11.90;;;19.10;97.40;;;;;;5140733;23;20443;-85
2021/06/11 01:57:55;;;;;;;13.80;11.23;;;19.00;97.80;;;;;;5147762;23;20505;-85
2021/06/11 02:00:01;;;;;;;13.40;12.07;;;18.90;98.00;;;;;;5139638;23;20751;-84
2021/06/11 02:02:04;;;;;;;12.67;11.47;;;18.90;98.00;;;;;;5140168;23;20417;-85
2021/06/11 02:04:07;;;;;;;12.03;10.90;;;18.90;98.00;;;;;;5140484;23;20435;-86
2021/06/11 02:06:10;;;;;;;13.00;11.80;;;19.00;97.90;;;;;;5148934;23;21069;-86
2021/06/11 02:08:14;;;;;;;12.63;11.40;;;19.00;97.80;;;;;;5148119;23;20427;-85
2021/06/11 02:10:20;;;;;;;13.70;11.80;;;19.10;97.80;;;;;;5140185;23;20962;-83
2021/06/11 02:12:22;;;;;;;12.23;11.03;;;19.10;97.90;;;;;;5148052;23;20397;-83
2021/06/11 02:14:25;;;;;;;12.93;11.70;;;19.00;97.90;;;;;;5148185;23;20425;-85
2021/06/11 02:16:31;;;;;;;13.63;11.97;;;19.00;98.10;;;;;;5140179;23;20431;-86
2021/06/11 02:18:35;;;;;;;22.93;15.37;;;19.00;98.20;;;;;;5140239;23;20492;-86
2021/06/11 02:20:37;;;;;;;34.57;26.87;;;19.10;98.20;;;;;;5148862;23;20428;-84
2021/06/11 02:22:41;;;;;;;17.20;14.70;;;19.10;98.00;;;;;;5150583;23;20448;-85
2021/06/11 02:24:44;;;;;;;15.27;13.77;;;19.10;98.00;;;;;;5142120;23;20754;-85
2021/06/11 02:26:47;;;;;;;21.23;14.07;;;19.00;98.10;;;;;;5142306;23;20451;-86
2021/06/11 02:28:50;;;;;;;16.73;13.80;;;18.90;98.30;;;;;;5141564;23;20459;-85
2021/06/11 02:30:53;;;;;;;18.40;14.20;;;19.00;98.30;;;;;;5150596;23;20420;-85
2021/06/11 02:32:57;;;;;;;15.77;14.17;;;18.90;98.20;;;;;;5141559;23;20754;-85
2021/06/11 02:34:59;;;;;;;13.37;12.03;;;19.00;98.20;;;;;;5141709;23;20429;-85
2021/06/11 02:37:02;;;;;;;14.40;12.90;;;18.90;98.30;;;;;;5148946;23;20421;-85
2021/06/11 02:39:05;;;;;;;14.07;12.57;;;18.80;98.30;;;;;;5141181;23;20958;-85
2021/06/11 02:41:11;;;;;;;13.87;12.47;;;18.70;98.30;;;;;;5150014;23;20439;-86
2021/06/11 02:43:15;;;;;;;13.97;12.10;;;18.70;98.30;;;;;;5141662;23;20413;-84
2021/06/11 02:45:22;;;;;;;14.23;12.83;;;18.70;98.30;;;;;;5149706;23;20515;-86
2021/06/11 02:47:30;;;;;;;13.33;11.07;;;18.70;98.30;;;;;;5140395;23;20444;-85
2021/06/11 02:49:37;;;;;;;13.50;12.20;;;18.70;98.30;;;;;;5141682;23;20451;-85
2021/06/11 02:51:43;;;;;;;14.83;13.33;;;18.70;98.30;;;;;;5149777;23;20416;-85
2021/06/11 02:53:47;;;;;;;19.27;13.93;;;18.70;98.30;;;;;;5149050;23;20484;-84
2021/06/11 02:55:49;;;;;;;16.10;14.40;;;18.60;98.30;;;;;;5141577;23;20511;-86
2021/06/11 02:57:58;;;;;;;19.20;15.43;;;18.60;98.30;;;;;;5149283;23;20413;-86
2021/06/11 03:00:04;;;;;;;16.27;13.73;;;18.60;98.30;;;;;;5141317;23;20973;-85
2021/06/11 03:02:11;;;;;;;15.60;13.40;;;18.60;98.30;;;;;;5141690;23;20424;-85
2021/06/11 03:04:14;;;;;;;17.50;14.70;;;18.60;98.30;;;;;;5149822;23;20485;-85
2021/06/11 03:06:20;;;;;;;17.00;15.20;;;18.60;98.30;;;;;;5149511;23;20417;-85
2021/06/11 03:08:25;;;;;;;16.83;14.93;;;18.60;98.30;;;;;;5141045;23;21040;-86
2021/06/11 03:10:30;;;;;;;16.80;15.00;;;18.70;98.30;;;;;;5141529;23;20505;-82
2021/06/11 03:12:35;;;;;;;18.40;15.93;;;18.60;98.30;;;;;;5141574;23;20496;-84
2021/06/11 03:14:38;;;;;;;18.80;16.00;;;18.70;98.30;;;;;;5141254;23;20432;-85
2021/06/11 03:16:44;;;;;;;18.53;16.63;;;18.70;98.30;;;;;;5141746;23;20425;-86
2021/06/11 03:18:52;;;;;;;19.80;16.20;;;18.80;98.30;;;;;;5149185;23;20444;-86
2021/06/11 03:20:56;;;;;;;19.40;17.37;;;18.70;98.30;;;;;;5149912;23;20440;-86
2021/06/11 03:23:04;;;;;;;24.57;18.27;;;18.80;98.30;;;;;;5149752;23;20420;-86
2021/06/11 03:25:11;;;;;;;22.13;17.33;;;18.70;98.30;;;;;;5150261;23;20851;-84
2021/06/11 03:27:19;;;;;;;19.20;16.27;;;18.70;98.30;;;;;;5142037;23;20428;-86
2021/06/11 03:29:26;;;;;;;24.40;20.10;;;18.70;98.30;;;;;;5141661;23;20444;-85
2021/06/11 03:31:33;;;;;;;28.43;24.97;;;18.70;98.30;;;;;;5148189;23;20433;-85
2021/06/11 03:33:39;;;;;;;26.53;21.90;;;18.70;98.30;;;;;;5141812;23;20467;-85
2021/06/11 03:35:45;;;;;;;24.30;20.67;;;18.70;98.30;;;;;;5142034;23;20749;-85
2021/06/11 03:37:52;;;;;;;22.37;19.17;;;18.80;98.30;;;;;;5141723;23;20440;-85
2021/06/11 03:39:59;;;;;;;23.50;20.73;;;18.80;98.30;;;;;;5141879;23;20775;-86
2021/06/11 03:42:04;;;;;;;22.87;20.43;;;18.80;98.30;;;;;;5150231;23;20419;-86
2021/06/11 03:44:10;;;;;;;24.97;21.20;;;18.90;98.30;;;;;;5142058;23;20429;-86
2021/06/11 03:46:14;;;;;;;26.33;20.57;;;18.80;98.30;;;;;;5149681;23;20914;-84
2021/06/11 03:48:17;;;;;;;28.53;22.60;;;18.80;98.30;;;;;;5149722;23;20524;-85
2021/06/11 03:50:22;;;;;;;26.20;22.87;;;18.80;98.30;;;;;;5149735;23;20441;-85
2021/06/11 03:52:27;;;;;;;38.50;29.40;;;18.70;98.30;;;;;;5150034;23;20431;-85
2021/06/11 03:54:30;;;;;;;37.27;31.60;;;18.70;98.30;;;;;;5149484;23;20799;-85
2021/06/11 03:56:36;;;;;;;33.67;25.63;;;18.70;98.30;;;;;;5149947;23;20424;-86
2021/06/11 03:58:41;;;;;;;26.50;23.07;;;18.70;98.30;;;;;;5141422;23;20423;-85
2021/06/11 04:00:47;;;;;;;28.30;24.63;;;18.80;98.30;;;;;;5141521;23;20508;-85
2021/06/11 04:02:49;;;;;;;29.03;24.23;;;18.80;98.30;;;;;;5148806;23;20409;-86
2021/06/11 04:04:52;;;;;;;30.97;25.63;;;18.70;98.30;;;;;;5141274;23;20487;-85
2021/06/11 04:07:03;;;;;;;29.03;25.17;;;18.70;98.30;;;;;;5141417;23;20790;-85
2021/06/11 04:09:08;;;;;;;25.97;23.10;;;18.70;98.30;;;;;;5141019;23;20588;-85
2021/06/11 04:11:16;;;;;;;26.53;22.80;;;18.80;98.30;;;;;;5149713;23;20436;-84
2021/06/11 04:13:24;;;;;;;24.43;21.60;;;18.80;98.30;;;;;;5141132;23;20417;-85
2021/06/11 04:15:29;;;;;;;31.07;24.40;;;18.90;98.30;;;;;;5149292;23;20417;-85
2021/06/11 04:17:38;;;;;;;28.10;24.10;;;18.90;98.30;;;;;;5148770;23;20421;-85
2021/06/11 04:19:44;;;;;;;30.33;26.33;;;18.90;98.30;;;;;;5141205;23;20457;-86
2021/06/11 04:21:57;;;;;;;30.13;25.13;;;18.90;98.30;;;;;;5149595;23;20460;-86
2021/06/11 04:24:03;;;;;;;29.77;26.57;;;19.00;98.30;;;;;;5140272;23;20766;-85
2021/06/11 04:26:08;;;;;;;31.47;27.53;;;19.10;98.30;;;;;;5148272;23;20914;-85
2021/06/11 04:28:11;;;;;;;32.97;25.37;;;19.10;98.30;;;;;;5148344;23;20429;-85
2021/06/11 04:30:16;;;;;;;34.10;29.57;;;19.20;98.30;;;;;;5149088;23;20437;-83
2021/06/11 04:32:19;;;;;;;31.97;26.80;;;19.20;98.30;;;;;;5140579;23;20934;-85
2021/06/11 04:34:24;;;;;;;32.93;28.67;;;19.20;98.30;;;;;;5140498;23;20435;-85
2021/06/11 04:36:28;;;;;;;30.77;27.47;;;19.20;98.30;;;;;;5140791;23;20428;-83
2021/06/11 04:38:42;;;;;;;29.20;26.00;;;19.20;98.30;;;;;;5147764;23;20517;-85
2021/06/11 04:40:45;;;;;;;31.70;27.80;;;19.30;98.30;;;;;;5149265;23;20405;-84
2021/06/11 04:42:47;;;;;;;32.13;28.03;;;19.20;98.30;;;;;;5140940;23;20459;-85
2021/06/11 04:44:50;;;;;;;31.73;27.53;;;19.20;98.30;;;;;;5148600;23;20500;-85
2021/06/11 04:46:54;;;;;;;34.57;30.80;;;19.10;98.30;;;;;;5141217;23;20436;-86
2021/06/11 04:48:56;;;;;;;35.00;27.20;;;19.00;98.30;;;;;;5141067;23;20459;-84
2021/06/11 04:50:59;;;;;;;35.80;31.67;;;19.10;98.30;;;;;;5141209;23;20516;-86
2021/06/11 04:53:01;;;;;;;38.60;30.13;;;19.10;98.30;;;;;;5141412;23;20515;-86
2021/06/11 04:55:05;;;;;;;36.23;32.33;;;19.00;98.30;;;;;;5141021;23;20460;-85
2021/06/11 04:57:08;;;;;;;41.70;34.50;;;19.10;98.30;;;;;;5149091;23;20491;-85
2021/06/11 04:59:11;;;;;;;41.40;35.30;;;19.00;98.30;;;;;;5149020;23;20436;-85
2021/06/11 05:01:13;;;;;;;42.33;35.50;;;18.80;98.30;;;;;;5140922;23;20449;-84
2021/06/11 05:03:17;;;;;;;47.40;40.00;;;18.60;98.30;;;;;;5140891;23;20428;-86
2021/06/11 05:05:20;;;;;;;42.60;34.33;;;18.60;98.30;;;;;;5140975;23;20524;-85
2021/06/11 05:07:22;;;;;;;43.60;35.13;;;18.50;98.30;;;;;;5140670;23;20428;-86
2021/06/11 05:09:25;;;;;;;47.70;36.53;;;18.40;98.30;;;;;;5140382;23;20449;-85
2021/06/11 05:11:27;;;;;;;45.20;37.13;;;18.40;98.30;;;;;;5140848;23;20429;-86
2021/06/11 05:13:30;;;;;;;45.07;36.13;;;18.50;98.30;;;;;;5140832;23;20429;-84
2021/06/11 05:15:32;;;;;;;51.77;39.97;;;18.50;98.30;;;;;;5140945;23;20435;-84
2021/06/11 05:17:35;;;;;;;52.93;41.53;;;18.60;98.30;;;;;;5148786;23;20431;-85
2021/06/11 05:19:39;;;;;;;50.03;41.43;;;18.70;98.30;;;;;;5149459;23;20441;-86
2021/06/11 05:21:42;;;;;;;55.73;42.00;;;18.90;98.30;;;;;;5149571;23;20431;-86
2021/06/11 05:23:45;;;;;;;53.23;42.67;;;19.10;98.30;;;;;;5140744;23;20453;-85
2021/06/11 05:25:48;;;;;;;52.30;40.73;;;19.20;98.30;;;;;;5148868;23;20431;-86
2021/06/11 05:27:50;;;;;;;51.70;41.63;;;19.20;98.30;;;;;;5148247;23;20440;-86
2021/06/11 05:29:53;;;;;;;49.07;41.03;;;19.30;98.30;;;;;;5148812;23;20520;-86
2021/06/11 05:31:55;;;;;;;57.03;45.00;;;19.30;98.30;;;;;;5141006;23;20433;-86
2021/06/11 05:33:58;;;;;;;62.67;46.77;;;19.30;98.30;;;;;;5141101;23;20436;-84
2021/06/11 05:36:02;;;;;;;59.83;46.20;;;19.20;98.30;;;;;;5140491;23;20487;-85
2021/06/11 06:02:33;;;;;;;47.50;37.80;;;20.00;98.30;;;;;;5003144;23;20426;-81
2021/06/11 06:04:41;;;;;;;46.37;38.53;;;19.90;98.30;;;;;;5054771;23;20422;-82
2021/06/11 06:07:03;;;;;;;44.80;35.73;;;19.90;98.30;;;;;;5094051;23;20442;-81
2021/06/11 06:09:19;;;;;;;41.40;34.00;;;19.90;98.30;;;;;;5101496;23;20524;-81
2021/06/11 06:18:20;;;;;;;38.60;29.33;;;20.20;98.30;;;;;;5092672;23;20783;-82
2021/06/11 06:20:47;;;;;;;34.30;28.83;;;20.40;98.30;;;;;;5101363;23;20457;-84
2021/06/11 06:25:32;;;;;;;34.80;29.43;;;20.70;98.30;;;;;;5083500;23;20422;-84
2021/06/11 06:34:19;;;;;;;30.10;23.33;;;20.90;98.30;;;;;;5106701;23;20442;-83
2021/06/11 06:36:23;;;;;;;24.87;21.93;;;20.80;98.30;;;;;;5102820;23;20426;-82
2021/06/11 06:38:26;;;;;;;23.67;21.17;;;20.80;98.30;;;;;;5101998;23;20446;-83
2021/06/11 06:40:29;;;;;;;21.83;19.53;;;20.90;97.30;;;;;;5102768;23;20517;-83
2021/06/11 06:42:31;;;;;;;21.23;18.57;;;20.80;96.60;;;;;;5102957;23;20415;-82
2021/06/11 06:44:34;;;;;;;20.50;18.37;;;20.90;96.80;;;;;;5103838;23;20498;-82
2021/06/11 06:46:39;;;;;;;20.77;18.50;;;21.00;96.00;;;;;;5095435;23;20748;-82
2021/06/11 06:48:42;;;;;;;18.60;15.93;;;21.20;95.90;;;;;;5101756;23;20952;-83
2021/06/11 06:50:47;;;;;;;21.33;18.57;;;21.30;96.60;;;;;;5103393;23;20422;-83
2021/06/11 06:52:53;;;;;;;21.07;18.10;;;21.30;95.50;;;;;;5103859;23;20449;-82
2021/06/11 06:54:55;;;;;;;17.37;15.13;;;21.30;94.80;;;;;;5094868;23;20446;-82
2021/06/11 06:57:01;;;;;;;16.00;14.30;;;21.30;92.50;;;;;;5103692;23;20469;-82
2021/06/11 06:59:03;;;;;;;20.30;14.70;;;21.30;92.80;;;;;;5101381;23;21187;-82
2021/06/11 07:01:09;;;;;;;17.23;15.23;;;21.20;93.20;;;;;;5101370;23;20419;-82
2021/06/11 07:03:12;;;;;;;17.83;14.40;;;21.30;93.70;;;;;;5093230;23;20446;-82
2021/06/11 07:05:15;;;;;;;14.97;13.40;;;21.30;93.60;;;;;;5101784;23;20768;-82
2021/06/11 07:07:19;;;;;;;15.87;14.17;;;21.40;93.00;;;;;;5102279;23;20481;-83
2021/06/11 07:09:23;;;;;;;13.93;12.60;;;21.40;91.80;;;;;;5101587;23;20526;-82
2021/06/11 07:11:25;;;;;;;14.93;13.43;;;21.40;93.10;;;;;;5102040;23;20419;-82
2021/06/11 07:13:32;;;;;;;15.57;13.70;;;21.50;92.70;;;;;;5102135;23;20423;-82
2021/06/11 07:15:34;;;;;;;18.33;15.13;;;21.60;92.10;;;;;;5102377;23;20936;-83
2021/06/11 07:17:38;;;;;;;14.33;12.83;;;21.60;92.90;;;;;;5102231;23;20450;-82
2021/06/11 07:19:40;;;;;;;23.57;21.07;;;21.70;93.20;;;;;;5094069;23;20423;-82
2021/06/11 07:21:43;;;;;;;18.17;14.80;;;22.00;93.50;;;;;;5093926;23;20427;-82
2021/06/11 07:23:49;;;;;;;15.47;12.70;;;22.20;92.10;;;;;;5103111;23;20437;-83
2021/06/11 07:25:52;;;;;;;13.10;11.90;;;22.10;91.00;;;;;;5103235;23;20438;-82
2021/06/11 07:27:54;;;;;;;16.23;14.40;;;22.00;91.70;;;;;;5104993;23;20956;-82
2021/06/11 07:29:58;;;;;;;16.30;14.60;;;22.00;92.50;;;;;;5094996;23;20427;-82
2021/06/11 07:32:00;;;;;;;16.90;15.20;;;22.00;92.80;;;;;;5119609;23;20419;-82
2021/06/11 07:34:03;;;;;;;25.47;21.47;;;21.90;92.30;;;;;;5103649;23;20426;-83
2021/06/11 07:36:06;;;;;;;23.73;20.70;;;21.90;93.20;;;;;;5102686;23;20429;-82
2021/06/11 07:38:11;;;;;;;15.53;13.93;;;22.10;93.50;;;;;;5094506;23;20447;-82
2021/06/11 07:40:33;;;;;;;16.30;13.77;;;22.40;94.10;;;;;;5094363;23;20411;-83
2021/06/11 07:42:35;;;;;;;16.43;14.73;;;22.60;93.30;;;;;;5094070;23;20431;-82
2021/06/11 07:44:38;;;;;;;14.20;12.80;;;22.70;92.60;;;;;;5102134;23;20839;-83
2021/06/11 07:46:41;;;;;;;17.90;15.20;;;22.70;92.20;;;;;;5104161;23;20422;-82
2021/06/11 07:48:43;;;;;;;16.83;12.73;;;22.80;92.30;;;;;;5101517;23;20443;-83
2021/06/11 07:50:46;;;;;;;16.47;13.90;;;22.70;92.90;;;;;;5101538;23;20511;-82
2021/06/11 07:52:49;;;;;;;13.90;12.10;;;22.80;92.50;;;;;;5102043;23;20431;-83
2021/06/11 07:54:52;;;;;;;18.70;12.50;;;22.80;93.00;;;;;;5102203;23;20423;-83
2021/06/11 07:56:56;;;;;;;17.63;12.20;;;22.80;93.10;;;;;;5092985;23;20522;-83
2021/06/11 07:58:58;;;;;;;14.17;12.23;;;22.90;92.90;;;;;;5101278;23;20419;-83
2021/06/11 08:01:01;;;;;;;14.23;11.20;;;23.00;93.10;;;;;;5101315;23;20446;-83
2021/06/11 08:03:04;;;;;;;12.10;9.60;;;23.30;91.80;;;;;;5101109;23;20526;-83
2021/06/11 08:05:08;;;;;;;10.73;8.73;;;23.40;90.70;;;;;;5100977;23;20433;-83
2021/06/11 08:07:11;;;;;;;9.00;7.70;;;23.60;89.20;;;;;;5101170;23;20497;-83
2021/06/11 08:09:13;;;;;;;10.47;9.33;;;23.60;89.20;;;;;;5100577;23;20534;-83
2021/06/11 08:11:16;;;;;;;10.77;9.87;;;23.70;88.80;;;;;;5101140;23;20501;-82
2021/06/11 08:13:20;;;;;;;8.80;8.00;;;23.60;87.90;;;;;;5093255;23;20507;-83
2021/06/11 08:15:23;;;;;;;9.97;9.03;;;23.50;88.10;;;;;;5100550;23;20426;-82
2021/06/11 08:17:26;;;;;;;15.40;13.80;;;23.50;88.90;;;;;;5092766;23;20729;-83
2021/06/11 08:19:29;;;;;;;7.57;6.93;;;23.70;89.00;;;;;;5091781;23;20430;-83
2021/06/11 08:21:31;;;;;;;7.83;7.07;;;23.70;87.30;;;;;;5100727;23;20433;-82
2021/06/11 08:23:34;;;;;;;8.90;7.23;;;23.60;88.10;;;;;;5100405;23;20422;-83
2021/06/11 08:25:36;;;;;;;8.60;6.90;;;23.70;87.70;;;;;;5100695;23;20485;-83
2021/06/11 08:27:41;;;;;;;13.30;11.67;;;23.80;86.80;;;;;;5100367;23;20476;-83
2021/06/11 08:29:44;;;;;;;24.63;20.50;;;23.80;87.00;;;;;;5092202;23;20474;-83
2021/06/11 08:31:47;;;;;;;9.27;8.10;;;24.00;87.30;;;;;;5099776;23;20438;-83
2021/06/11 08:33:50;;;;;;;8.13;7.33;;;24.10;86.40;;;;;;5101024;23;20909;-83
2021/06/11 08:35:53;;;;;;;8.03;7.20;;;24.30;86.00;;;;;;5095018;23;20462;-83
2021/06/11 08:37:55;;;;;;;9.00;6.77;;;24.30;85.60;;;;;;5106538;23;20447;-82
2021/06/11 08:39:58;;;;;;;6.30;5.80;;;24.10;86.00;;;;;;5093164;23;20513;-83
2021/06/11 08:42:01;;;;;;;8.00;6.40;;;24.20;86.80;;;;;;5100700;23;20801;-82
2021/06/11 08:44:06;;;;;;;7.40;6.70;;;24.20;86.50;;;;;;5101003;23;20837;-82
2021/06/11 08:46:15;;;;;;;7.47;6.67;;;24.30;85.70;;;;;;5100505;23;20450;-83
2021/06/11 08:48:20;;;;;;;6.60;5.90;;;24.30;86.50;;;;;;5100119;23;20505;-83
2021/06/11 08:50:27;;;;;;;8.10;7.10;;;24.40;86.00;;;;;;5100829;23;20451;-82
2021/06/11 08:52:30;;;;;;;7.53;6.40;;;24.60;85.90;;;;;;5091963;23;20435;-83
2021/06/11 08:54:32;;;;;;;7.97;7.17;;;24.60;85.30;;;;;;5100523;23;20462;-82
2021/06/11 08:56:36;;;;;;;7.33;6.63;;;24.60;85.60;;;;;;5101080;23;20935;-82
2021/06/11 08:58:39;;;;;;;6.40;5.90;;;24.50;86.30;;;;;;5099802;23;20506;-83
2021/06/11 09:00:42;;;;;;;7.20;6.50;;;24.50;86.00;;;;;;5100166;23;20442;-83
2021/06/11 09:03:16;;;;;;;6.90;6.07;;;24.70;85.70;;;;;;5099604;23;20434;-83
2021/06/11 09:05:19;;;;;;;7.97;7.20;;;24.90;85.50;;;;;;5100180;23;20414;-84
2021/06/11 09:07:27;;;;;;;8.67;6.80;;;25.00;84.70;;;;;;5091761;23;20498;-83
2021/06/11 09:09:47;;;;;;;8.40;6.20;;;25.20;84.40;;;;;;5099634;23;20776;-83
2021/06/11 09:11:50;;;;;;;5.70;5.20;;;25.20;84.20;;;;;;5092231;23;20689;-83
2021/06/11 09:13:59;;;;;;;6.40;5.80;;;25.20;84.00;;;;;;5099766;23;20462;-83
2021/06/11 09:16:10;;;;;;;7.67;5.77;;;25.30;84.10;;;;;;5092226;23;20411;-83
2021/06/11 09:18:22;;;;;;;11.10;6.20;;;25.50;83.80;;;;;;5100798;23;20454;-83
2021/06/11 09:20:31;;;;;;;6.60;5.90;;;25.60;83.20;;;;;;5101485;23;20399;-83
2021/06/11 09:22:44;;;;;;;10.63;5.27;;;25.70;83.00;;;;;;5101437;23;20441;-83
2021/06/11 09:24:47;;;;;;;6.80;5.17;;;25.70;83.70;;;;;;5101707;23;20474;-84
2021/06/11 09:27:11;;;;;;;8.23;5.87;;;25.70;83.40;;;;;;5092691;23;20971;-83
2021/06/11 09:29:18;;;;;;;7.40;6.70;;;25.90;83.60;;;;;;5092590;23;20541;-83
2021/06/11 09:31:25;;;;;;;7.27;6.10;;;25.90;83.10;;;;;;5094709;23;20501;-83
2021/06/11 09:33:42;;;;;;;7.10;6.17;;;26.00;82.90;;;;;;5103674;23;20417;-83
2021/06/11 09:35:46;;;;;;;6.90;5.80;;;26.00;83.20;;;;;;5103137;23;20438;-83
2021/06/11 09:37:48;;;;;;;7.10;6.40;;;26.20;83.20;;;;;;5103192;23;20447;-83
2021/06/11 09:39:52;;;;;;;6.70;6.10;;;26.40;83.70;;;;;;5106438;23;20423;-83
2021/06/11 09:42:02;;;;;;;9.77;7.03;;;26.40;82.80;;;;;;5098880;23;20911;-83
2021/06/11 09:44:05;;;;;;;8.23;7.33;;;26.40;82.20;;;;;;5096067;23;21102;-83
2021/06/11 09:46:11;;;;;;;7.53;6.60;;;26.30;82.40;;;;;;5095822;23;20509;-83
2021/06/11 09:48:20;;;;;;;6.77;6.07;;;26.20;82.80;;;;;;5104183;23;20537;-83
2021/06/11 09:50:26;;;;;;;6.80;6.03;;;26.50;83.00;;;;;;5102798;23;21023;-83
2021/06/11 09:52:34;;;;;;;8.90;7.07;;;26.50;83.10;;;;;;5103563;23;20447;-84
2021/06/11 09:54:37;;;;;;;7.40;6.67;;;26.50;82.70;;;;;;5103535;23;20914;-83
2021/06/11 09:56:40;;;;;;;7.70;6.50;;;26.60;82.30;;;;;;5104564;23;20430;-83
2021/06/11 09:58:42;;;;;;;6.73;6.10;;;26.60;82.50;;;;;;5103872;23;20423;-84
2021/06/11 10:00:56;;;;;;;8.30;7.10;;;26.70;82.20;;;;;;5104175;23;20423;-83
2021/06/11 10:02:59;;;;;;;7.27;6.63;;;26.70;82.40;;;;;;5103895;23;20912;-83
2021/06/11 10:05:02;;;;;;;9.70;6.27;;;26.80;82.40;;;;;;5103734;23;20526;-83
2021/06/11 10:07:06;;;;;;;10.30;7.83;;;26.90;82.80;;;;;;5095919;23;20458;-83
2021/06/11 10:09:10;;;;;;;11.13;7.90;;;26.90;80.60;;;;;;5103675;23;20423;-83
2021/06/11 10:11:15;;;;;;;9.37;6.60;;;26.90;80.60;;;;;;5095116;23;20762;-83
2021/06/11 10:13:19;;;;;;;7.40;6.70;;;26.70;81.00;;;;;;5105963;23;20430;-83
2021/06/11 10:15:21;;;;;;;7.63;6.80;;;26.80;81.10;;;;;;5097022;23;20514;-83
2021/06/11 10:17:24;;;;;;;7.90;7.10;;;26.80;81.10;;;;;;5105478;23;20756;-83
2021/06/11 10:19:28;;;;;;;9.47;8.57;;;26.70;80.70;;;;;;5105451;23;20573;-84
2021/06/11 10:21:30;;;;;;;11.10;9.40;;;26.60;81.10;;;;;;5104499;23;20457;-83
2021/06/11 10:23:35;;;;;;;18.63;16.00;;;26.70;81.70;;;;;;5098201;23;20735;-83
2021/06/11 10:25:43;;;;;;;22.17;19.83;;;26.90;80.30;;;;;;5096491;23;20503;-83
2021/06/11 10:27:45;;;;;;;11.20;7.73;;;27.00;80.30;;;;;;5103971;23;20554;-83
2021/06/11 10:29:48;;;;;;;8.57;7.60;;;27.20;79.70;;;;;;5102917;23;20542;-83
2021/06/11 10:31:51;;;;;;;8.37;7.60;;;27.20;79.90;;;;;;5096691;23;20427;-83
2021/06/11 10:34:00;;;;;;;10.07;8.40;;;27.50;79.60;;;;;;5096392;23;20466;-83
2021/06/11 10:36:03;;;;;;;11.67;10.57;;;27.50;79.70;;;;;;5105144;23;20403;-83
2021/06/11 10:38:09;;;;;;;21.10;18.80;;;27.30;80.20;;;;;;5104510;23;20447;-83
2021/06/11 10:40:22;;;;;;;9.60;8.63;;;27.20;81.00;;;;;;5104804;23;20490;-83
2021/06/11 10:42:25;;;;;;;9.63;8.73;;;27.40;80.70;;;;;;5111240;23;20422;-83
2021/06/11 10:44:33;;;;;;;11.43;9.90;;;27.00;81.10;;;;;;5105778;23;20419;-84
2021/06/11 10:46:36;;;;;;;36.00;24.80;;;27.00;82.10;;;;;;5104407;23;20490;-83
2021/06/11 10:49:01;;;;;;;13.30;9.90;;;27.10;82.60;;;;;;5095789;23;20445;-83
2021/06/11 10:51:04;;;;;;;8.20;7.03;;;27.70;81.30;;;;;;5095071;23;20564;-83
2021/06/11 10:53:26;;;;;;;9.27;8.33;;;27.90;81.00;;;;;;5095773;23;20437;-82
2021/06/11 10:55:51;;;;;;;16.93;15.10;;;27.60;79.60;;;;;;5094844;23;20960;-83
2021/06/11 10:58:24;;;;;;;20.57;18.47;;;27.60;80.60;;;;;;5101657;23;20507;-83
2021/06/11 11:00:33;;;;;;;10.07;9.10;;;28.30;79.50;;;;;;5049908;23;20434;-82
2021/06/11 11:02:47;;;;;;;10.13;9.03;;;28.60;78.40;;;;;;5102213;23;20427;-83
2021/06/11 11:04:50;;;;;;;9.67;7.17;;;29.00;77.60;;;;;;5102825;23;20486;-82
2021/06/11 11:07:18;;;;;;;7.33;6.73;;;28.70;77.50;;;;;;5094917;23;20450;-83
2021/06/11 11:09:22;;;;;;;18.97;15.37;;;28.40;77.70;;;;;;5102819;23;20459;-83
2021/06/11 11:11:37;;;;;;;15.10;13.60;;;28.80;77.70;;;;;;5102812;23;20810;-82
2021/06/11 11:13:39;;;;;;;12.13;10.87;;;29.00;77.50;;;;;;5102933;23;20422;-83
2021/06/11 11:15:43;;;;;;;12.33;11.23;;;29.20;76.10;;;;;;5102985;23;20493;-83
2021/06/11 11:17:53;;;;;;;7.27;6.57;;;29.40;76.90;;;;;;5096290;23;20493;-83